Time;durP1;ratioP1;P1;durP2;ratioP2;P2;SDS_P1;SDS_P2;PMS_P1;PMS_P2;Temp;Humidity;BMP_temperature;BMP_pressure;BME280_temperature;BME280_humidity;BME280_pressure;Samples;Min_cycle;Max_cycle;Signal;HPM_P1;HPM_P2
2021/11/01 00:00:16;;;;;;;;;1.50;1.50;;;;;21.73;44.24;99671.91;5016105;28;45211;-57
2021/11/01 00:02:42;;;;;;;;;2.00;1.00;;;;;21.72;44.11;99667.59;5016216;28;45407;-55
2021/11/01 00:05:08;;;;;;;;;1.00;1.00;;;;;21.72;44.23;99663.13;5015782;28;45479;-63
2021/11/01 00:07:34;;;;;;;;;2.25;1.00;;;;;21.70;44.17;99664.22;5015870;28;45523;-57
2021/11/01 00:09:59;;;;;;;;;1.25;0.00;;;;;21.70;44.50;99664.22;5015938;28;45464;-57
2021/11/01 00:12:29;;;;;;;;;3.25;1.00;;;;;21.69;44.24;99663.41;5015820;28;45357;-60
2021/11/01 00:14:55;;;;;;;;;3.25;2.00;;;;;21.67;44.19;99656.53;5015967;28;45474;-57
2021/11/01 00:17:20;;;;;;;;;2.75;1.00;;;;;21.67;44.17;99651.28;5016092;28;45419;-59
2021/11/01 00:19:45;;;;;;;;;1.00;1.00;;;;;21.66;43.99;99655.72;5015913;28;45433;-60
2021/11/01 00:22:11;;;;;;;;;0.50;0.50;;;;;21.66;44.02;99658.34;5015990;28;45428;-58
2021/11/01 00:24:36;;;;;;;;;3.00;2.00;;;;;21.64;44.24;99652.38;5015636;28;45386;-58
2021/11/01 00:27:01;;;;;;;;;2.00;1.00;;;;;21.65;44.24;99653.22;5015524;28;45442;-56
2021/11/01 00:29:27;;;;;;;;;1.25;1.25;;;;;21.66;44.12;99650.44;5015407;28;45400;-61
2021/11/01 00:31:52;;;;;;;;;2.00;2.00;;;;;21.64;44.47;99643.63;5015923;28;45399;-59
2021/11/01 00:34:19;;;;;;;;;2.00;2.00;;;;;21.62;44.26;99636.69;4998370;28;45389;-61
2021/11/01 00:36:45;;;;;;;;;3.25;1.00;;;;;21.62;43.93;99644.59;5015057;28;47426;-60
2021/11/01 00:39:10;;;;;;;;;2.00;2.00;;;;;21.62;44.60;99643.72;5015696;28;45314;-60
2021/11/01 00:41:35;;;;;;;;;1.00;1.00;;;;;21.61;44.02;99635.00;5015689;28;45463;-60
2021/11/01 00:44:02;;;;;;;;;4.00;1.00;;;;;21.59;44.23;99634.28;5014747;28;45397;-59
2021/11/01 00:46:27;;;;;;;;;1.00;1.00;;;;;21.59;44.34;99623.72;5015363;28;45515;-60
2021/11/01 00:48:53;;;;;;;;;0.75;0.75;;;;;21.59;44.30;99629.00;5015634;28;45401;-60
2021/11/01 00:51:18;;;;;;;;;3.25;1.00;;;;;21.58;44.32;99627.28;5015660;28;45223;-57
2021/11/01 00:53:52;;;;;;;;;1.00;1.00;;;;;21.59;44.30;99615.00;5015671;28;45779;-60
2021/11/01 00:56:17;;;;;;;;;1.00;1.00;;;;;21.58;44.64;99606.19;5015258;28;46473;-60
2021/11/01 00:58:44;;;;;;;;;1.75;1.75;;;;;21.58;43.93;99605.38;5015028;28;45387;-60
2021/11/01 01:01:10;;;;;;;;;1.75;1.75;;;;;21.57;44.02;99606.31;5015266;28;45898;-60
2021/11/01 01:03:35;;;;;;;;;2.75;1.75;;;;;21.52;44.70;99590.88;5015322;28;45512;-60
2021/11/01 01:06:03;;;;;;;;;1.00;1.00;;;;;21.56;44.58;99605.47;5015063;28;45332;-60
2021/11/01 01:08:28;;;;;;;;;3.25;2.00;;;;;21.54;44.56;99591.59;5015262;28;45454;-60
2021/11/01 01:10:54;;;;;;;;;1.50;0.50;;;;;21.55;44.29;99598.53;5015753;28;45329;-61
2021/11/01 01:13:22;;;;;;;;;4.25;1.50;;;;;21.53;44.30;99597.81;5015257;28;45515;-61
2021/11/01 01:16:06;;;;;;;;;2.00;1.00;;;;;21.53;44.33;99603.09;5015164;28;47217;-58
2021/11/01 01:18:35;;;;;;;;;2.25;1.00;;;;;21.53;44.41;99596.97;5000010;28;45406;-59
2021/11/01 01:22:10;;;;;;;;;2.50;1.00;;;;;21.53;44.18;99605.75;5018566;28;45416;-58
2021/11/01 01:23:46;;;;;;;;;2.75;1.00;;;;;21.51;44.50;99588.34;5018639;28;45542;-61
2021/11/01 01:26:14;;;;;;;;;3.75;2.25;;;;;21.52;44.38;99584.75;5018354;28;46274;-59
2021/11/01 01:28:40;;;;;;;;;1.75;1.75;;;;;21.49;44.53;99577.94;5018357;28;45373;-58
2021/11/01 01:31:06;;;;;;;;;1.00;1.00;;;;;21.46;44.71;99571.13;5018435;28;45384;-60
2021/11/01 01:33:32;;;;;;;;;3.00;2.00;;;;;21.51;44.59;99573.38;5018432;28;45634;-59
2021/11/01 01:35:57;;;;;;;;;1.00;1.00;;;;;21.50;44.71;99576.97;5018161;28;46215;-58
2021/11/01 01:38:22;;;;;;;;;1.00;1.00;;;;;21.49;44.39;99587.66;5018410;28;45280;-59
2021/11/01 01:40:48;;;;;;;;;2.00;1.00;;;;;21.47;44.40;99585.13;5018385;28;45342;-56
2021/11/01 01:43:13;;;;;;;;;1.50;1.50;;;;;21.46;44.27;99575.53;5018390;28;45429;-57
2021/11/01 01:45:39;;;;;;;;;2.25;1.00;;;;;21.46;44.78;99579.03;5017882;28;45475;-60
2021/11/01 01:48:04;;;;;;;;;1.75;1.75;;;;;21.46;44.54;99578.16;5017947;28;45250;-59
2021/11/01 01:50:30;;;;;;;;;1.50;0.75;;;;;21.46;44.21;99576.38;5017938;28;45770;-60
2021/11/01 01:52:55;;;;;;;;;3.00;1.00;;;;;21.45;44.29;99573.84;5018377;28;45337;-55
2021/11/01 01:55:21;;;;;;;;;1.25;1.25;;;;;21.45;44.59;99573.84;5017888;28;45341;-59
2021/11/01 01:57:52;;;;;;;;;3.00;2.00;;;;;21.44;44.53;99572.19;5017824;28;46103;-58
2021/11/01 02:03:01;;;;;;;;;1.00;1.00;;;;;21.42;44.48;99564.41;5017905;28;45338;-58
2021/11/01 02:05:36;;;;;;;;;1.75;1.00;;;;;21.44;44.13;99569.56;5017710;28;45384;-55
2021/11/01 02:08:06;;;;;;;;;2.00;0.75;;;;;21.43;44.45;99567.88;5017490;28;45661;-60
2021/11/01 02:10:42;;;;;;;;;2.50;1.00;;;;;21.42;44.63;99563.56;5016403;28;45368;-58
2021/11/01 02:13:17;;;;;;;;;1.00;1.00;;;;;21.41;44.53;99567.16;5017636;28;45471;-51
2021/11/01 02:15:46;;;;;;;;;1.00;1.00;;;;;21.41;44.37;99573.25;5017651;28;46617;-59
2021/11/01 02:18:14;;;;;;;;;1.00;0.75;;;;;21.42;44.53;99560.94;5017504;28;45769;-56
2021/11/01 02:21:04;;;;;;;;;1.75;1.75;;;;;21.40;44.19;99554.94;5017857;28;45377;-56
2021/11/01 02:23:59;;;;;;;;;1.00;1.00;;;;;21.41;44.24;99546.06;5000403;28;45404;-55
2021/11/01 02:26:25;;;;;;;;;1.75;0.75;;;;;21.39;44.36;99559.34;5017454;28;46312;-48
2021/11/01 02:28:52;;;;;;;;;1.00;1.00;;;;;21.38;44.66;99568.25;5017315;28;45262;-59
2021/11/01 02:31:20;;;;;;;;;1.50;0.25;;;;;21.39;44.43;99574.34;4999675;28;45250;-58
2021/11/01 02:33:48;;;;;;;;;1.00;1.00;;;;;21.35;44.73;99571.13;5017582;28;45314;-56
2021/11/01 02:36:13;;;;;;;;;1.75;1.00;;;;;21.37;44.74;99573.63;5016952;28;46414;-58
2021/11/01 02:38:39;;;;;;;;;1.00;1.00;;;;;21.37;44.23;99571.00;4999148;28;45496;-56
2021/11/01 02:41:17;;;;;;;;;1.00;1.00;;;;;21.37;44.58;99576.25;5017661;28;45274;-60
2021/11/01 02:43:48;;;;;;;;;0.75;0.75;;;;;21.35;44.61;99572.91;5017316;28;45352;-61
2021/11/01 02:46:14;;;;;;;;;1.50;1.50;;;;;21.36;44.65;99579.84;5017038;28;46575;-61
2021/11/01 02:48:39;;;;;;;;;1.00;1.00;;;;;21.28;44.81;99565.50;5016815;28;45425;-56
2021/11/01 02:51:05;;;;;;;;;2.00;1.00;;;;;21.35;44.53;99578.16;5017033;28;45781;-57
2021/11/01 02:53:31;;;;;;;;;2.00;1.00;;;;;21.33;44.24;99570.41;5017312;28;45742;-50
2021/11/01 02:55:57;;;;;;;;;2.25;1.50;;;;;21.32;44.56;99574.00;5017067;28;46330;-61
2021/11/01 02:58:22;;;;;;;;;2.00;1.00;;;;;21.34;44.26;99579.13;5016896;28;45353;-60
2021/11/01 03:00:47;;;;;;;;;1.00;1.00;;;;;21.33;44.40;99583.56;5032284;28;45427;-60
2021/11/01 03:03:13;;;;;;;;;1.00;1.00;;;;;21.33;44.32;99582.75;5016904;28;45576;-62
2021/11/01 03:05:40;;;;;;;;;2.75;2.00;;;;;21.30;44.28;99574.13;5016430;28;46761;-60
2021/11/01 03:08:06;;;;;;;;;2.00;1.00;;;;;21.33;44.16;99577.47;5016812;28;45723;-60
2021/11/01 03:10:32;;;;;;;;;1.00;1.00;;;;;21.32;44.27;99563.44;5017058;28;45420;-52
2021/11/01 03:12:59;;;;;;;;;0.25;0.25;;;;;21.31;44.53;99562.63;5017394;28;45640;-60
2021/11/01 03:15:24;;;;;;;;;2.00;0.25;;;;;21.29;44.24;99556.63;5016359;28;47305;-60
2021/11/01 03:18:01;;;;;;;;;3.00;0.50;;;;;21.30;44.39;99566.22;5016593;28;45405;-57
2021/11/01 03:20:30;;;;;;;;;1.00;1.00;;;;;21.29;44.68;99575.09;5016763;28;45432;-57
2021/11/01 03:23:05;;;;;;;;;1.00;1.00;;;;;21.28;44.22;99568.13;5016906;28;45625;-59
2021/11/01 03:25:38;;;;;;;;;2.50;1.00;;;;;21.28;44.24;99570.75;5016750;28;47290;-59
2021/11/01 03:28:05;;;;;;;;;4.25;2.00;;;;;21.28;44.35;99570.75;5016551;28;45266;-53
2021/11/01 03:30:33;;;;;;;;;0.00;0.00;;;;;21.28;44.38;99583.94;4998916;28;45380;-60
2021/11/01 03:33:01;;;;;;;;;1.00;1.00;;;;;21.27;44.28;99571.72;5017074;28;45350;-61
2021/11/01 03:35:28;;;;;;;;;1.00;1.00;;;;;21.27;44.39;99587.53;5016261;28;45554;-60
2021/11/01 03:37:56;;;;;;;;;1.00;0.75;;;;;21.27;44.30;99589.34;5016137;28;45381;-61
2021/11/01 03:40:25;;;;;;;;;1.50;1.50;;;;;21.27;44.54;99591.97;4998076;28;45376;-59
2021/11/01 03:42:53;;;;;;;;;2.00;1.50;;;;;21.25;44.62;99596.53;5016503;28;45495;-58
2021/11/01 03:45:20;;;;;;;;;1.00;1.00;;;;;21.27;44.44;99597.25;5016076;28;46180;-59
2021/11/01 03:47:47;;;;;;;;;1.00;1.00;;;;;21.24;44.79;99594.84;5016189;28;45352;-56
2021/11/01 03:50:29;;;;;;;;;2.00;1.00;;;;;21.26;44.37;99591.13;5016346;28;45426;-57
2021/11/01 03:52:55;;;;;;;;;1.00;1.00;;;;;21.25;44.30;99593.88;5016537;28;45210;-58
2021/11/01 03:55:23;;;;;;;;;0.00;0.00;;;;;21.26;44.73;99590.31;5015710;28;45702;-57
2021/11/01 03:57:48;;;;;;;;;1.25;1.00;;;;;21.21;44.35;99582.75;5015698;28;45743;-60
2021/11/01 04:00:15;;;;;;;;;2.00;1.25;;;;;21.25;44.34;99596.53;5016389;28;45321;-61
2021/11/01 04:02:45;;;;;;;;;0.00;0.00;;;;;21.23;44.77;99590.53;5016259;28;45678;-59
2021/11/01 04:05:10;;;;;;;;;1.50;1.50;;;;;21.22;44.19;99599.38;4997944;28;48247;-59
2021/11/01 04:07:36;;;;;;;;;0.75;0.00;;;;;21.22;44.53;99600.22;5015760;28;45428;-60
2021/11/01 04:10:02;;;;;;;;;1.00;1.00;;;;;21.21;44.13;99598.56;5016228;28;45443;-53
2021/11/01 04:12:29;;;;;;;;;0.00;0.00;;;;;21.22;44.22;99602.03;5015851;28;45495;-60
2021/11/01 04:15:04;;;;;;;;;1.75;1.75;;;;;21.22;44.17;99607.28;5015756;28;46255;-56
2021/11/01 04:17:41;;;;;;;;;1.00;1.00;;;;;21.21;44.45;99605.63;5016228;28;45626;-57
2021/11/01 04:23:00;;;;;;;;;2.25;0.00;;;;;21.20;44.63;99599.53;5015850;28;45425;-61
2021/11/01 04:25:27;;;;;;;;;2.50;1.00;;;;;21.21;44.38;99606.47;5015497;28;47305;-58
2021/11/01 04:27:53;;;;;;;;;0.50;0.50;;;;;21.18;44.28;99601.44;5015560;28;45266;-54
2021/11/01 04:30:20;;;;;;;;;1.25;1.00;;;;;21.17;44.64;99608.47;5015784;28;45414;-60
2021/11/01 04:32:48;;;;;;;;;0.00;0.00;;;;;21.17;43.96;99607.66;5016119;28;45417;-57
2021/11/01 04:35:19;;;;;;;;;2.00;0.00;;;;;21.20;44.30;99611.84;5015321;28;46910;-56
2021/11/01 04:37:46;;;;;;;;;0.00;0.00;;;;;21.16;44.35;99596.28;5015522;28;45283;-56
2021/11/01 04:53:50;;;;;;;;;1.75;0.00;;;;;21.15;44.57;99593.75;5019123;28;45502;-56
2021/11/01 04:56:22;;;;;;;;;1.00;1.00;;;;;21.12;44.18;99600.09;5018753;28;46482;-60
2021/11/01 04:58:48;;;;;;;;;1.00;1.00;;;;;21.11;44.54;99600.25;5018868;28;45317;-49
2021/11/01 05:01:18;;;;;;;;;1.50;0.00;;;;;21.08;43.20;99603.09;5019041;28;45484;-44
2021/11/01 05:03:44;;;;;;;;;0.50;0.00;;;;;20.89;42.77;99604.50;5018992;28;45392;-49
2021/11/01 05:06:12;;;;;;;;;1.00;1.00;;;;;20.73;42.76;99615.31;5001230;28;47584;-47
2021/11/01 05:08:50;;;;;;;;;2.00;1.00;;;;;20.55;42.56;99601.78;5018604;28;45455;-45
2021/11/01 05:11:27;;;;;;;;;0.50;0.50;;;;;20.38;42.64;99597.78;5018914;28;45322;-47
2021/11/01 05:13:53;;;;;;;;;8.00;5.50;;;;;20.16;42.76;99591.47;5018848;28;45341;-61
2021/11/01 05:16:30;;;;;;;;;9.25;8.00;;;;;20.06;42.58;99606.25;5018382;28;45799;-53
2021/11/01 05:24:38;;;;;;;;;9.50;7.25;;;;;19.62;42.73;99603.19;5018876;28;45579;-58
2021/11/01 05:27:20;;;;;;;;;8.25;6.75;;;;;19.54;43.58;99600.28;5018458;28;47217;-59
2021/11/01 05:29:51;;;;;;;;;7.50;6.00;;;;;19.62;44.02;99604.03;5018275;28;45896;-50
2021/11/01 05:32:29;;;;;;;;;6.00;6.00;;;;;19.73;43.75;99610.34;5018445;28;45337;-46
2021/11/01 05:34:54;;;;;;;;;7.75;5.00;;;;;19.82;43.84;99598.31;5018597;28;45469;-57
2021/11/01 05:37:20;;;;;;;;;5.25;5.25;;;;;19.90;43.98;99617.00;5018195;28;45437;-49
2021/11/01 05:39:47;;;;;;;;;6.25;4.00;;;;;19.98;44.05;99619.09;5018311;28;45283;-51
2021/11/01 05:42:14;;;;;;;;;7.50;6.25;;;;;20.04;43.39;99611.59;5018129;28;45460;-55
2021/11/01 05:44:39;;;;;;;;;9.00;7.00;;;;;20.10;43.91;99609.50;5018646;28;45579;-44
2021/11/01 05:47:06;;;;;;;;;6.00;5.25;;;;;20.16;43.79;99609.88;5018405;28;46320;-52
2021/11/01 05:49:31;;;;;;;;;6.50;5.75;;;;;20.19;43.51;99611.44;5018121;28;45350;-57
2021/11/01 05:51:57;;;;;;;;;7.75;5.75;;;;;20.25;43.67;99616.25;5018206;28;45381;-54
2021/11/01 05:54:26;;;;;;;;;4.75;4.75;;;;;20.31;43.48;99623.72;5018018;28;45581;-49
2021/11/01 05:59:42;;;;;;;;;11.50;5.75;;;;;20.37;43.40;99639.03;5017954;28;45422;-56
2021/11/01 06:02:36;;;;;;;;;4.25;4.25;;;;;20.41;43.20;99641.44;5017231;28;45448;-52
2021/11/01 06:05:03;;;;;;;;;5.50;4.00;;;;;20.44;43.43;99641.22;5017265;28;45575;-57
2021/11/01 06:10:12;;;;;;;;;4.75;4.75;;;;;20.49;43.24;99652.22;5017780;28;45358;-60
2021/11/01 06:15:27;;;;;;;;;3.00;3.00;;;;;20.53;43.62;99656.31;5002727;28;45428;-57
2021/11/01 06:17:52;;;;;;;;;5.50;3.75;;;;;20.54;43.21;99655.38;5017283;28;45431;-52
2021/11/01 06:20:18;;;;;;;;;6.50;4.75;;;;;20.57;43.57;99654.31;5017704;28;45420;-56
2021/11/01 06:22:44;;;;;;;;;2.50;2.50;;;;;20.58;43.12;99653.34;5000021;28;45814;-53
2021/11/01 06:25:12;;;;;;;;;4.00;4.00;;;;;20.60;43.53;99652.28;5018063;28;45554;-57
2021/11/01 06:27:38;;;;;;;;;2.25;2.00;;;;;20.60;43.63;99657.53;5017489;28;46598;-58
2021/11/01 06:32:42;;;;;;;;;7.75;5.00;;;;;20.63;42.96;99667.84;5017699;28;45458;-56
2021/11/01 06:43:12;;;;;;;;;4.25;3.00;;;;;20.65;43.71;99675.63;5017395;28;45279;-60
2021/11/01 07:17:51;;;;;;;;;2.00;1.25;;;;;20.71;43.53;99675.19;5016783;28;45412;-54
2021/11/01 07:20:24;;;;;;;;;3.75;2.75;;;;;20.71;43.49;99680.44;5016352;28;46186;-58
2021/11/01 08:34:41;;;;;;;;;1.00;1.00;;;;;20.79;43.88;99704.44;5019636;28;45397;-61
2021/11/01 08:43:01;;;;;;;;;1.25;1.00;;;;;20.76;43.56;99702.03;5019533;28;45498;-61
2021/11/01 08:50:57;;;;;;;;;1.75;1.25;;;;;20.81;43.54;99715.72;5019118;28;45348;-61
2021/11/01 09:04:21;;;;;;;;;1.25;1.25;;;;;20.83;43.87;99715.59;5019026;28;45367;-59
2021/11/01 09:07:09;;;;;;;;;1.75;1.00;;;;;20.83;43.46;99720.84;5018858;28;46379;-61
2021/11/01 09:10:08;;;;;;;;;1.25;0.75;;;;;20.82;43.62;99722.66;5018088;28;45314;-61
2021/11/01 09:20:41;;;;;;;;;1.75;0.75;;;;;20.82;43.62;99713.91;5018833;28;45337;-61
2021/11/01 09:26:01;;;;;;;;;1.50;0.00;;;;;20.84;43.50;99704.91;5018835;28;45389;-60
2021/11/01 09:41:22;;;;;;;;;1.50;1.00;;;;;20.88;43.67;99700.28;5018673;28;45771;-48
2021/11/01 09:43:51;;;;;;;;;3.00;0.00;;;;;20.88;43.21;99695.03;5018249;28;45417;-60
2021/11/01 09:46:17;;;;;;;;;1.00;1.00;;;;;20.89;43.92;99698.47;5018889;28;45437;-57
2021/11/01 09:48:44;;;;;;;;;0.75;0.75;;;;;20.88;43.88;99708.19;5018121;28;46048;-58
2021/11/01 09:51:10;;;;;;;;;0.00;0.00;;;;;20.90;43.80;99708.91;5018111;28;45424;-57
2021/11/01 09:53:47;;;;;;;;;2.00;1.00;;;;;20.91;44.05;99707.94;5017988;28;45341;-60
2021/11/01 09:56:31;;;;;;;;;2.00;1.25;;;;;20.91;43.96;99693.94;5018024;28;45279;-60
2021/11/01 09:59:12;;;;;;;;;0.25;0.25;;;;;20.90;43.66;99701.00;5018036;28;45773;-59
2021/11/01 10:01:42;;;;;;;;;1.00;1.00;;;;;20.91;43.58;99694.78;5000067;28;45659;-57
2021/11/01 10:04:22;;;;;;;;;1.00;0.00;;;;;20.93;44.30;99692.88;5017750;28;45354;-60
2021/11/01 10:07:34;;;;;;;;;1.00;0.00;;;;;20.93;44.16;99690.22;5018285;28;45524;-59
2021/11/01 10:09:41;;;;;;;;;0.50;0.00;;;;;20.94;44.47;99693.72;5006982;28;45471;-60
2021/11/01 10:12:18;;;;;;;;;1.00;0.50;;;;;20.95;44.07;99700.66;5017891;28;45496;-57
2021/11/01 10:14:52;;;;;;;;;0.50;0.50;;;;;20.94;44.56;99702.44;5018159;28;45337;-61
2021/11/01 10:17:34;;;;;;;;;1.00;1.00;;;;;20.95;44.15;99705.91;5018060;28;45444;-60
2021/11/01 10:20:05;;;;;;;;;1.00;1.00;;;;;20.95;44.40;99706.78;5017480;28;47026;-57
2021/11/01 10:22:36;;;;;;;;;1.25;0.50;;;;;20.98;44.05;99703.91;5017737;28;45713;-60
2021/11/01 10:25:05;;;;;;;;;0.50;0.50;;;;;20.99;44.18;99710.88;5017793;28;45380;-60
2021/11/01 10:27:39;;;;;;;;;2.25;1.00;;;;;20.99;44.46;99700.31;5017633;28;45678;-60
2021/11/01 10:30:06;;;;;;;;;0.50;0.00;;;;;20.99;44.47;99708.22;5017546;28;46392;-59
2021/11/01 10:32:49;;;;;;;;;1.00;1.00;;;;;20.99;44.23;99697.69;4999613;28;45653;-60
2021/11/01 10:35:21;;;;;;;;;0.25;0.25;;;;;20.99;44.47;99700.31;5017779;28;45339;-59
2021/11/01 10:37:59;;;;;;;;;0.25;0.25;;;;;21.00;44.51;99709.88;4999381;28;45567;-60
2021/11/01 10:40:26;;;;;;;;;2.00;0.00;;;;;21.00;44.24;99709.06;5017390;28;46350;-59
2021/11/01 10:42:53;;;;;;;;;2.50;0.00;;;;;21.02;44.22;99704.50;5017019;28;45700;-61
2021/11/01 11:10:51;;;;;;;;;1.00;0.00;;;;;21.01;44.22;99681.75;4955206;28;46238;-47
2021/11/01 11:13:15;;;;;;;;;0.00;0.00;;;;;20.96;43.73;99658.41;5016832;28;45767;-56
2021/11/01 11:15:41;;;;;;;;;1.75;1.00;;;;;20.94;44.00;99662.94;5017033;28;45726;-45
2021/11/01 11:24:28;;;;;;;;;3.00;1.00;;;;;20.92;43.57;99667.47;5015768;28;46168;-55
2021/11/01 11:49:16;;;;;;;;;1.00;1.00;;;;;20.89;45.68;99661.63;5010908;28;45440;-59
2021/11/01 11:52:03;;;;;;;;;3.25;3.25;;;;;20.89;45.70;99659.81;5016244;28;45436;-58
2021/11/01 11:54:48;;;;;;;;;4.00;4.00;;;;;20.89;45.78;99656.34;5016581;28;45543;-61
2021/11/01 11:57:19;;;;;;;;;4.00;2.75;;;;;20.88;45.81;99662.56;5015786;28;45387;-61
2021/11/01 11:59:47;;;;;;;;;3.00;3.00;;;;;20.86;45.81;99662.69;5016203;28;45741;-61
2021/11/01 12:02:13;;;;;;;;;3.50;3.50;;;;;20.86;45.79;99652.16;5015854;28;45400;-61
2021/11/01 12:04:47;;;;;;;;;10.25;5.00;;;;;20.85;45.75;99650.47;5016145;28;45326;-57
2021/11/01 12:07:15;;;;;;;;;14.50;12.75;;;;;20.88;46.11;99652.88;5016070;28;45386;-52
2021/11/01 12:09:57;;;;;;;;;58.50;45.75;;;;;20.88;45.55;99644.97;5015794;28;45436;-50
2021/11/01 12:12:48;;;;;;;;;313.25;268.50;;;;;20.89;47.05;99644.00;5015804;28;45292;-45
2021/11/01 12:17:56;;;;;;;;;552.25;434.25;;;;;20.90;46.97;99637.78;5015494;28;45376;-52
2021/11/01 12:20:22;;;;;;;;;567.40;444.20;;;;;20.90;47.09;99636.97;5015424;28;45405;-53
2021/11/01 12:22:51;;;;;;;;;540.40;446.00;;;;;20.91;46.54;99641.28;5015566;28;45282;-62
2021/11/01 12:25:20;;;;;;;;;382.00;312.33;;;;;20.89;46.07;99635.28;5015501;28;45361;-60
2021/11/01 12:27:59;;;;;;;;;263.75;217.75;;;;;20.89;45.54;99622.94;5015049;28;45352;-60
2021/11/01 12:30:30;;;;;;;;;343.00;278.00;;;;;20.91;46.05;99630.75;5015570;28;45223;-60
2021/11/01 12:32:56;;;;;;;;;353.50;280.75;;;;;20.92;45.53;99627.16;4997969;28;45456;-60
2021/11/01 12:35:30;;;;;;;;;346.00;278.00;;;;;20.90;45.58;99627.25;5015672;28;45522;-59
2021/11/01 12:38:02;;;;;;;;;292.50;245.25;;;;;20.91;45.58;99613.13;5015325;28;46358;-59
2021/11/01 12:40:47;;;;;;;;;263.25;220.00;;;;;20.92;45.33;99614.81;5015802;28;45420;-59
2021/11/01 12:57:24;;;;;;;;;198.50;165.50;;;;;20.92;44.92;99593.72;4996456;28;45446;-58
2021/11/01 12:59:50;;;;;;;;;204.00;169.50;;;;;20.94;44.82;99591.81;5015011;28;45386;-59
2021/11/01 13:02:29;;;;;;;;;209.50;169.50;;;;;20.94;44.95;99586.56;5015386;28;45337;-56
2021/11/01 13:04:57;;;;;;;;;183.50;155.50;;;;;20.94;44.61;99583.94;4997258;28;45446;-59
2021/11/01 13:09:59;;;;;;;;;190.00;154.75;;;;;20.94;44.29;99586.56;5014914;28;45779;-56
2021/11/01 13:20:30;;;;;;;;;143.75;117.00;;;;;20.96;44.21;99555.69;5017936;28;46128;-50
2021/11/01 13:23:00;;;;;;;;;133.25;110.75;;;;;20.95;44.41;99556.63;4999750;28;45433;-52
2021/11/01 13:37:22;;;;;;;;;118.50;94.25;;;;;20.91;44.10;99554.34;5018195;28;45464;-54
2021/11/01 13:40:08;;;;;;;;;108.00;91.25;;;;;20.90;44.19;99558.78;5018462;28;45565;-53
2021/11/01 13:42:33;;;;;;;;;100.75;79.00;;;;;20.88;44.45;99546.69;5017728;28;47076;-49
2021/11/01 13:45:06;;;;;;;;;98.50;85.50;;;;;20.89;44.46;99538.66;5018255;28;45477;-61
2021/11/01 13:47:51;;;;;;;;;89.00;76.25;;;;;20.89;44.63;99532.56;5017176;28;45450;-54
2021/11/01 13:50:20;;;;;;;;;82.00;70.25;;;;;20.89;44.52;99536.03;5018144;28;45354;-60
2021/11/01 13:53:15;;;;;;;;;94.25;77.75;;;;;20.88;44.81;99534.38;5017778;28;45434;-52
2021/11/01 13:55:47;;;;;;;;;84.50;70.75;;;;;20.88;45.09;99562.50;5015481;28;45507;-54
2021/11/01 14:00:56;;;;;;;;;91.25;76.50;;;;;20.87;45.14;99569.56;5017975;28;45238;-61
2021/11/01 14:14:06;;;;;;;;;74.25;57.75;;;;;20.86;45.33;99583.69;5017406;28;45488;-58
2021/11/01 14:16:55;;;;;;;;;80.50;63.25;;;;;20.85;45.27;99579.38;5017978;28;45369;-59
2021/11/01 14:19:39;;;;;;;;;70.75;55.00;;;;;20.85;45.66;99582.81;5017559;28;45390;-61
2021/11/01 14:27:49;;;;;;;;;68.50;50.00;;;;;20.85;45.77;99563.56;5017717;28;45456;-51
2021/11/01 15:18:23;;;;;;;;;52.00;40.00;;;;;20.78;46.66;99591.34;5016730;28;46005;-58
2021/11/01 15:23:27;;;;;;;;;50.75;38.00;;;;;20.79;46.44;99603.53;5016376;28;45365;-56
2021/11/01 15:39:40;;;;;;;;;44.75;34.75;;;;;20.76;46.61;99578.28;5016318;28;45282;-50
2021/11/01 16:18:15;;;;;;;;;34.50;28.75;;;;;20.78;46.94;99593.97;5016018;28;45415;-55
2021/11/01 16:20:33;;;;;;;;;31.25;26.50;;;;;20.79;46.52;99587.72;5013096;28;45213;-54
2021/11/01 16:25:42;;;;;;;;;29.75;23.75;;;;;20.80;46.79;99585.00;5015675;28;45336;-60
2021/11/01 16:28:08;;;;;;;;;29.00;22.50;;;;;20.83;46.35;99581.28;5016131;28;45440;-60
2021/11/01 16:30:36;;;;;;;;;29.75;24.00;;;;;20.83;46.42;99582.13;5016124;28;45371;-61
2021/11/01 16:33:06;;;;;;;;;31.25;23.75;;;;;20.85;46.53;99588.09;5015544;28;46188;-61
2021/11/01 16:35:39;;;;;;;;;26.75;21.25;;;;;20.85;46.40;99588.09;5015706;28;45847;-59
2021/11/01 16:40:31;;;;;;;;;21.50;19.00;;;;;20.88;46.54;99586.19;5015965;28;45326;-58
2021/11/01 16:42:57;;;;;;;;;20.75;18.25;;;;;20.87;46.42;99585.38;4997623;28;47086;-59
2021/11/01 16:45:40;;;;;;;;;24.75;21.00;;;;;20.89;46.35;99590.50;5015546;28;45317;-59
2021/11/01 16:48:08;;;;;;;;;24.00;18.25;;;;;20.90;46.45;99593.00;5018104;28;45412;-60
2021/11/01 16:50:34;;;;;;;;;21.00;16.25;;;;;20.89;46.01;99599.22;5018943;28;45552;-61
2021/11/01 16:53:00;;;;;;;;;18.25;13.25;;;;;20.91;45.98;99607.84;5018746;28;45511;-59
2021/11/01 16:55:30;;;;;;;;;21.75;18.75;;;;;20.90;46.07;99611.44;5018889;28;45250;-61
2021/11/01 16:58:03;;;;;;;;;16.00;14.75;;;;;20.93;46.30;99605.94;5018682;28;45489;-50
2021/11/01 17:00:38;;;;;;;;;19.00;15.75;;;;;20.93;46.11;99608.59;5001011;28;45764;-56
2021/11/01 18:39:42;;;;;;;;;6.25;4.00;;;;;22.30;45.24;99663.88;5017405;28;45167;-57
2021/11/01 18:51:08;;;;;;;;;5.00;4.00;;;;;22.33;45.27;99660.97;5017202;28;45278;-58
2021/11/01 18:53:42;;;;;;;;;6.75;5.25;;;;;22.31;45.25;99660.28;5016685;28;45588;-58
2021/11/01 18:56:12;;;;;;;;;4.50;4.50;;;;;22.31;45.36;99663.75;5016969;28;45421;-58
2021/11/01 18:58:39;;;;;;;;;4.50;3.50;;;;;22.31;45.35;99660.28;5017022;28;45381;-58
2021/11/01 19:01:10;;;;;;;;;9.50;7.00;;;;;22.28;45.23;99653.41;5017155;28;45590;-55
2021/11/01 19:03:45;;;;;;;;;4.50;3.75;;;;;22.30;44.98;99653.31;5016757;28;47458;-57
2021/11/01 19:09:12;;;;;;;;;5.00;5.00;;;;;22.30;45.19;99655.97;5017003;28;45271;-54
2021/11/01 20:04:16;;;;;;;;;13.00;10.25;;;;;22.18;44.11;99645.44;4943631;28;45415;-56
2021/11/01 20:10:08;;;;;;;;;8.25;7.25;;;;;22.16;44.26;99639.44;5015156;28;45746;-52
2021/11/01 20:12:47;;;;;;;;;11.00;8.25;;;;;22.16;44.35;99638.63;5014594;28;45802;-54
2021/11/01 21:25:02;;;;;;;;;9.25;9.00;;;;;21.88;44.46;99625.81;5017965;28;45796;-57
2021/11/01 21:27:28;;;;;;;;;7.50;7.50;;;;;21.88;44.54;99625.81;5017689;28;46089;-55
2021/11/01 21:29:54;;;;;;;;;10.00;9.75;;;;;21.86;44.46;99622.50;5017316;28;45355;-54
2021/11/01 21:32:19;;;;;;;;;10.75;8.00;;;;;21.86;44.05;99625.13;5017650;28;45309;-56
2021/11/01 21:34:58;;;;;;;;;8.25;6.50;;;;;21.85;44.18;99628.72;5016782;28;45623;-55
2021/11/01 21:37:25;;;;;;;;;8.75;7.50;;;;;21.85;44.16;99623.47;5016983;28;46926;-57
2021/11/01 21:39:52;;;;;;;;;8.50;7.50;;;;;21.83;44.17;99614.00;5017812;28;45708;-52
2021/11/01 21:42:18;;;;;;;;;7.75;7.75;;;;;21.83;44.01;99606.91;5017461;28;45434;-54
2021/11/01 21:44:43;;;;;;;;;6.50;5.50;;;;;21.82;44.12;99607.88;5018112;28;45299;-51
2021/11/01 21:47:09;;;;;;;;;7.00;7.00;;;;;21.83;44.39;99604.28;5017935;28;45208;-61
2021/11/01 21:49:35;;;;;;;;;9.00;6.00;;;;;21.82;44.05;99604.41;5017235;28;45352;-61
2021/11/01 21:52:00;;;;;;;;;8.25;6.00;;;;;21.83;44.09;99603.44;5018114;28;45421;-59
2021/11/01 21:54:28;;;;;;;;;8.00;8.00;;;;;21.81;44.26;99600.91;5000288;28;45408;-61
2021/11/01 22:00:21;;;;;;;;;6.00;6.00;;;;;21.81;43.98;99593.00;5017769;28;45823;-57
2021/11/01 22:21:15;;;;;;;;;6.00;6.00;;;;;21.77;43.81;99578.41;5017655;28;45372;-61
2021/11/01 22:44:58;;;;;;;;;8.25;4.75;;;;;21.69;43.69;99562.34;5016968;28;45313;-54
2021/11/01 22:55:39;;;;;;;;;3.50;3.50;;;;;21.64;43.65;99546.06;5017381;28;45190;-58
2021/11/01 22:58:05;;;;;;;;;5.75;5.75;;;;;21.64;43.76;99554.81;5016965;28;45533;-62
2021/11/01 23:00:39;;;;;;;;;6.00;6.00;;;;;21.62;43.89;99565.47;5016969;28;46363;-63
2021/11/01 23:03:13;;;;;;;;;4.00;4.00;;;;;21.57;43.66;99545.69;5017168;28;45262;-63
2021/11/01 23:32:43;;;;;;;;;5.25;4.00;;;;;21.49;43.98;99538.38;5016280;28;45483;-61
2021/11/01 23:35:08;;;;;;;;;4.50;4.00;;;;;21.50;43.85;99539.25;5016534;28;45398;-59
2021/11/01 23:37:34;;;;;;;;;6.00;4.25;;;;;21.47;43.38;99532.41;5016396;28;45525;-63
2021/11/01 23:39:59;;;;;;;;;3.75;3.75;;;;;21.46;43.48;99533.34;5015525;28;45519;-63
2021/11/01 23:42:24;;;;;;;;;4.00;3.00;;;;;21.47;43.86;99535.88;5016606;28;46375;-61
2021/11/01 23:44:54;;;;;;;;;3.50;3.50;;;;;21.46;43.74;99528.09;5016321;28;45477;-63